CLTO2: Kiamichi River Near Clayton, OK

Data processed at Wed May 22 2019 23:50


All information presented herein is the property of the government of the United States of America and may be revised or deleted at any time without prior notice.
Dissemination of this information without the expressed written consent of the Public Affairs Office, Tulsa District U.S. Army Corps of Engineers is strictly prohibited.
These data are gathered electronically and, as presented, have not undergone any form of quality control. These data are not guaranteed to be valid or correct.
Go to home page.
Go to station list.
Go to home page.

Upstream stations:

Downstream station:
Previous Day
Next Day
Current Day
    
SHEF ID:       CLTO2     Kiamichi River near Clayton, OK
STATION TYPE:  
Regulating: Stage =    15.00, Flow =    15549

               PRECIP     STAGE  RIV-FLOW  BAT-LOAD
                   in        ft       cfs      volt
              Ccp-Rev   Ccp-Rev   Ccp-Rev   Ccp-Rev
(US/Central)
05/22 00:00      0.00      6.36      1894     12.81
05/22 01:00      0.00      6.49      2055     12.81
05/22 02:00      0.00      6.60      2194     12.81
05/22 03:00      0.00      6.65      2255     12.81
05/22 04:00      0.00      6.67      2279     12.73
05/22 05:00      0.00      6.67      2279     12.73
05/22 06:00      0.00      6.64      2243     12.65
05/22 07:00      0.00      6.60      2194     12.65
05/22 08:00      0.00      6.57      2157     12.73
05/22 09:00      0.00      6.55      2132     13.37
05/22 10:00      0.00      6.53      2106     14.16
05/22 11:00      0.00      6.52      2093     14.00
05/22 12:00      0.00      6.53      2106     14.00
05/22 13:00      0.00      6.53      2106     13.92
05/22 14:00      0.00      6.53      2106     13.84
05/22 15:00      0.00      6.52      2093     13.84
05/22 16:00      0.00      6.51      2080     13.76
05/22 17:00      0.00      6.49      2055     13.84
05/22 18:00      0.00      6.47      2030     13.76
05/22 19:00      0.00      6.45      2005     13.68
05/22 20:00      0.00      6.42      1968     13.44
05/22 21:00      0.00      6.38      1919     12.97
05/22 22:00      0.00      6.35      1882     12.97
05/22 23:00      0.00      6.31      1835     12.89